^^
Meteo Knjazevac Station Historical Data
Daily Summary for April 13, 2021 Units:  Metric    English   Both
Daily Weekly Monthly Yearly Custom
  High: Low: Average:
Temperature: 19.2 °C 13.2 °C 15.7 °C
Dew Point: 13.2 °C 10.7 °C 11.9 °C
Humidity: 86% 68% 78%
Wind Speed: 1.6km/h 0km/h 0.6km/h
Wind Gust: 4.8km/h - -
Wind- - West
Pressure: 1024.3 hPa 1022.6 hPa -
Precipitation: 0 mm    
Historical Graphs
 
 
Tabular Data for April 13, 2021
Time Temperature Dew Point Pressure Wind Wind Speed Wind Gust Humidity Rainfall Rate (Hourly) solar Conditions
00:00 19.2 °C 13.2 °C 1022.6 hPa Calm   3.2 km/h 68% 0 mm 0 W/m2
00:10 18.9 °C 13.1 °C 1022.6 hPa Calm   3.2 km/h 69% 0 mm 0 W/m2
00:20 18.7 °C 13.1 °C 1022.6 hPa WSW 1.6 km/h 3.2 km/h 70% 0 mm 0 W/m2
00:30 18.5 °C 12.9 °C 1022.9 hPa SW 1.6 km/h 4.8 km/h 70% 0 mm 0 W/m2
00:40 18.3 °C 12.7 °C 1022.9 hPa Calm   3.2 km/h 70% 0 mm 0 W/m2
00:50 18 °C 12.9 °C 1022.9 hPa Calm   4.8 km/h 72% 0 mm 0 W/m2
01:00 17.9 °C 12.8 °C 1022.6 hPa Calm   3.2 km/h 72% 0 mm 0 W/m2
01:10 17.8 °C 12.7 °C 1022.9 hPa WSW 1.6 km/h 3.2 km/h 72% 0 mm 0 W/m2
01:20 17.6 °C 12.7 °C 1022.9 hPa West 1.6 km/h 4.8 km/h 73% 0 mm 0 W/m2
01:30 17.4 °C 12.5 °C 1022.6 hPa Calm   3.2 km/h 73% 0 mm 0 W/m2
01:40 17.2 °C 12.5 °C 1022.9 hPa WSW 1.6 km/h 3.2 km/h 74% 0 mm 0 W/m2
01:50 16.9 °C 12.4 °C 1022.9 hPa Calm   3.2 km/h 75% 0 mm 0 W/m2
02:00 16.5 °C 12.1 °C 1022.9 hPa West 1.6 km/h 3.2 km/h 75% 0 mm 0 W/m2
02:10 16.3 °C 12.3 °C 1022.9 hPa Calm   4.8 km/h 77% 0 mm 0 W/m2
02:20 16.1 °C 12.1 °C 1022.9 hPa WSW 1.6 km/h 3.2 km/h 77% 0 mm 0 W/m2
02:30 15.9 °C 12.1 °C 1022.9 hPa Calm   3.2 km/h 78% 0 mm 0 W/m2
02:40 15.8 °C 11.9 °C 1022.9 hPa NW 1.6 km/h 3.2 km/h 78% 0 mm 0 W/m2
02:50 15.5 °C 11.9 °C 1022.9 hPa Calm   3.2 km/h 79% 0 mm 0 W/m2
03:00 15.3 °C 11.7 °C 1023.2 hPa NW 1.6 km/h 3.2 km/h 79% 0 mm 0 W/m2
03:10 15.3 °C 11.7 °C 1023.2 hPa Calm   1.6 km/h 79% 0 mm 0 W/m2
03:20 15.3 °C 11.9 °C 1023.2 hPa Calm   3.2 km/h 80% 0 mm 0 W/m2
03:30 15.1 °C 11.7 °C 1023.2 hPa Calm   3.2 km/h 80% 0 mm 0 W/m2
03:40 14.9 °C 11.5 °C 1023.2 hPa WSW 1.6 km/h 3.2 km/h 80% 0 mm 0 W/m2
03:50 14.9 °C 11.5 °C 1023.2 hPa Calm   3.2 km/h 80% 0 mm 0 W/m2
04:00 14.8 °C 11.6 °C 1023.2 hPa West 1.6 km/h 3.2 km/h 81% 0 mm 0 W/m2
04:10 14.7 °C 11.4 °C 1023.2 hPa Calm   3.2 km/h 81% 0 mm 0 W/m2
04:20 14.5 °C 11.3 °C 1023.6 hPa NW 1.6 km/h 4.8 km/h 81% 0 mm 0 W/m2
04:30 14.3 °C 11.1 °C 1023.6 hPa Calm   3.2 km/h 81% 0 mm 0 W/m2
04:40 14.2 °C 11.3 °C 1023.6 hPa Calm   3.2 km/h 83% 0 mm 0 W/m2
04:50 14 °C 11.2 °C 1023.6 hPa Calm   3.2 km/h 83% 0 mm 0 W/m2
05:00 13.9 °C 11.1 °C 1023.9 hPa Calm   1.6 km/h 83% 0 mm 0 W/m2
05:10 13.7 °C 11.1 °C 1023.9 hPa West 1.6 km/h 3.2 km/h 84% 0 mm 0 W/m2
05:20 13.5 °C 10.8 °C 1024.3 hPa West 1.6 km/h 4.8 km/h 84% 0 mm 0 W/m2
05:30 13.4 °C 10.9 °C 1024.3 hPa West 1.6 km/h 4.8 km/h 85% 0 mm 0 W/m2
05:40 13.3 °C 10.8 °C 1024.3 hPa Calm   3.2 km/h 85% 0 mm 7 W/m2
05:50 13.2 °C 10.8 °C 1024.3 hPa Calm   1.6 km/h 85% 0 mm 14 W/m2
06:00 13.2 °C 10.7 °C 1024.3 hPa West 1.6 km/h 3.2 km/h 85% 0 mm 23 W/m2
06:10 13.2 °C 10.9 °C 1024.3 hPa Calm   3.2 km/h 86% 0 mm 33 W/m2
Knjazevac, Serbia
Compliments of Weather Underground - 2 mb